Time;durP1;ratioP1;P1;durP2;ratioP2;P2;SDS_P1;SDS_P2;PMS_P1;PMS_P2;Temp;Humidity;BMP_temperature;BMP_pressure;BME280_temperature;BME280_humidity;BME280_pressure;Samples;Min_cycle;Max_cycle;Signal;HPM_P1;HPM_P2
2023/08/02 02:04:54;;;;;;;1999.90;999.90;;;;;;;;;;5597274;23;20276;-75
2023/08/02 02:07:39;;;;;;;1999.90;999.90;;;;;;;;;;4954731;28;20227;-75
2023/08/02 02:10:24;;;;;;;1999.90;999.90;;;;;;;;;;4956208;28;20602;-76
2023/08/02 02:13:09;;;;;;;1999.90;999.90;;;;;;;;;;4957614;28;20704;-76
2023/08/02 02:15:54;;;;;;;1999.90;999.90;;;;;;;;;;4955928;28;20621;-76
2023/08/02 02:18:38;;;;;;;1999.90;999.90;;;;;;;;;;4955164;28;20205;-71
2023/08/02 02:21:26;;;;;;;1999.90;999.90;;;;;;;;;;4957555;28;20416;-71
2023/08/02 02:24:11;;;;;;;1999.90;999.90;;;;;;;;;;4951358;28;20243;-74
2023/08/02 02:26:56;;;;;;;1999.90;999.90;;;;;;;;;;4957686;28;20271;-72
2023/08/02 02:29:41;;;;;;;1999.90;999.90;;;;;;;;;;4953036;28;20212;-71
2023/08/02 02:32:26;;;;;;;1999.90;999.90;;;;;;;;;;4954885;28;20225;-75
2023/08/02 02:35:12;;;;;;;1999.90;999.90;;;;;;;;;;4955066;28;20233;-76
2023/08/02 02:37:58;;;;;;;1999.90;999.90;;;;;;;;;;4955074;28;20232;-75
2023/08/02 02:40:43;;;;;;;1999.90;999.90;;;;;;;;;;4954316;28;20980;-74
2023/08/02 02:43:28;;;;;;;1999.90;999.90;;;;;;;;;;4954803;28;20284;-76
2023/08/02 02:46:13;;;;;;;1999.90;999.90;;;;;;;;;;4954951;28;20228;-76
2023/08/02 02:48:58;;;;;;;1999.90;999.90;;;;;;;;;;4954892;28;20556;-76
2023/08/02 02:51:43;;;;;;;1999.90;999.90;;;;;;;;;;4960733;28;20216;-75
2023/08/02 02:54:29;;;;;;;1999.90;999.90;;;;;;;;;;4956154;28;20616;-76
2023/08/02 02:57:15;;;;;;;1999.90;999.90;;;;;;;;;;4961688;28;20247;-76
2023/08/02 03:00:00;;;;;;;1999.90;999.90;;;;;;;;;;4967960;28;20217;-75
2023/08/02 03:02:44;;;;;;;1999.90;999.90;;;;;;;;;;4961421;28;20213;-74
2023/08/02 03:05:29;;;;;;;1999.90;999.90;;;;;;;;;;4962227;28;20299;-75
2023/08/02 03:08:14;;;;;;;1999.90;999.90;;;;;;;;;;4935607;28;20209;-76
2023/08/02 03:11:00;;;;;;;1999.90;999.90;;;;;;;;;;4963010;28;20205;-76
2023/08/02 03:13:45;;;;;;;1999.90;999.90;;;;;;;;;;4967550;28;20216;-75
2023/08/02 03:16:30;;;;;;;1999.90;999.90;;;;;;;;;;4961816;28;20213;-75
2023/08/02 03:19:15;;;;;;;1999.90;999.90;;;;;;;;;;4956659;28;20522;-75
2023/08/02 03:22:00;;;;;;;1999.90;999.90;;;;;;;;;;4965858;28;20283;-75
2023/08/02 03:24:45;;;;;;;1999.90;999.90;;;;;;;;;;4960616;28;20236;-75
2023/08/02 03:27:31;;;;;;;1999.90;999.90;;;;;;;;;;4962566;28;20276;-75
2023/08/02 03:30:16;;;;;;;1999.90;999.90;;;;;;;;;;4957603;28;20755;-76
2023/08/02 03:33:01;;;;;;;1999.90;999.90;;;;;;;;;;4953968;28;20233;-76
2023/08/02 03:35:45;;;;;;;1999.90;999.90;;;;;;;;;;4963137;28;20733;-76
2023/08/02 03:38:30;;;;;;;1999.90;999.90;;;;;;;;;;4966425;28;20428;-76
2023/08/02 03:41:15;;;;;;;1999.90;999.90;;;;;;;;;;4955614;28;20216;-76
2023/08/02 03:44:02;;;;;;;1999.90;999.90;;;;;;;;;;4952886;28;20651;-76
2023/08/02 03:46:46;;;;;;;1999.90;999.90;;;;;;;;;;4962434;28;20220;-76
2023/08/02 03:49:31;;;;;;;1999.90;999.90;;;;;;;;;;4960484;28;20592;-76
2023/08/02 03:52:16;;;;;;;1999.90;999.90;;;;;;;;;;4955387;28;20246;-77
2023/08/02 03:55:01;;;;;;;1999.90;999.90;;;;;;;;;;4963948;28;20694;-76
2023/08/02 03:57:46;;;;;;;1999.90;999.90;;;;;;;;;;4955238;28;20220;-75
2023/08/02 04:00:32;;;;;;;1999.90;999.90;;;;;;;;;;4953816;28;20212;-74
2023/08/02 04:03:17;;;;;;;1999.90;999.90;;;;;;;;;;4954539;28;20581;-73
2023/08/02 04:06:04;;;;;;;1999.90;999.90;;;;;;;;;;4960289;28;20268;-74
2023/08/02 04:08:49;;;;;;;1999.90;999.90;;;;;;;;;;4956048;28;20225;-77
2023/08/02 04:11:34;;;;;;;1999.90;999.90;;;;;;;;;;4954328;28;20756;-75
2023/08/02 04:14:19;;;;;;;1999.90;999.90;;;;;;;;;;4955491;28;20220;-73
2023/08/02 04:17:06;;;;;;;1999.90;999.90;;;;;;;;;;4954918;28;20602;-72
2023/08/02 04:19:51;;;;;;;1999.90;999.90;;;;;;;;;;4955945;28;20212;-74
2023/08/02 04:22:36;;;;;;;1999.90;999.90;;;;;;;;;;4956558;28;20267;-73
2023/08/02 04:25:21;;;;;;;1999.90;999.90;;;;;;;;;;4959387;28;20291;-72
2023/08/02 04:28:06;;;;;;;1999.90;999.90;;;;;;;;;;4954249;28;20225;-76
2023/08/02 04:30:52;;;;;;;1999.90;999.90;;;;;;;;;;4961955;28;20286;-76
2023/08/02 04:33:38;;;;;;;1999.90;999.90;;;;;;;;;;4954754;28;20577;-76
2023/08/02 04:36:23;;;;;;;1999.90;999.90;;;;;;;;;;4959190;28;21077;-76
2023/08/02 04:39:08;;;;;;;1999.90;999.90;;;;;;;;;;4955752;28;20230;-76
2023/08/02 04:41:54;;;;;;;1999.90;999.90;;;;;;;;;;4956573;28;20216;-76
2023/08/02 04:44:39;;;;;;;1999.90;999.90;;;;;;;;;;4961082;28;20243;-76
2023/08/02 04:47:23;;;;;;;1999.90;999.90;;;;;;;;;;4952221;28;20232;-75
2023/08/02 04:50:10;;;;;;;1999.90;999.90;;;;;;;;;;4961554;28;20217;-76
2023/08/02 04:52:55;;;;;;;1999.90;999.90;;;;;;;;;;4959969;28;20691;-75
2023/08/02 04:55:44;;;;;;;1999.90;999.90;;;;;;;;;;4968638;28;20247;-75
2023/08/02 04:58:28;;;;;;;1999.90;999.90;;;;;;;;;;4960746;28;20258;-76
2023/08/02 05:01:13;;;;;;;1999.90;999.90;;;;;;;;;;4945286;28;20216;-75
2023/08/02 05:03:59;;;;;;;1999.90;999.90;;;;;;;;;;4961201;28;20711;-75
2023/08/02 05:06:45;;;;;;;1999.90;999.90;;;;;;;;;;4953002;28;20208;-75
2023/08/02 05:09:30;;;;;;;1999.90;999.90;;;;;;;;;;4955618;28;20241;-75
2023/08/02 05:12:15;;;;;;;1999.90;999.90;;;;;;;;;;4956677;28;20215;-75
2023/08/02 05:15:00;;;;;;;1999.90;999.90;;;;;;;;;;4957885;28;20228;-75
2023/08/02 05:17:45;;;;;;;1999.90;999.90;;;;;;;;;;4956714;28;20552;-74
2023/08/02 05:20:31;;;;;;;1999.90;999.90;;;;;;;;;;4970200;28;20809;-76
2023/08/02 05:23:17;;;;;;;1999.90;999.90;;;;;;;;;;4959101;28;20212;-75
2023/08/02 05:26:03;;;;;;;1999.90;999.90;;;;;;;;;;4960813;28;20319;-74
2023/08/02 05:28:49;;;;;;;1999.90;999.90;;;;;;;;;;4953104;28;20340;-74
2023/08/02 05:31:34;;;;;;;1999.90;999.90;;;;;;;;;;4956634;28;20212;-73
2023/08/02 05:34:19;;;;;;;1999.90;999.90;;;;;;;;;;4960462;28;20227;-76
2023/08/02 05:37:05;;;;;;;1999.90;999.90;;;;;;;;;;4959049;28;20405;-75
2023/08/02 05:39:51;;;;;;;1999.90;999.90;;;;;;;;;;4954504;28;20291;-75
2023/08/02 05:42:36;;;;;;;1999.90;999.90;;;;;;;;;;4955503;28;20207;-75
2023/08/02 05:45:21;;;;;;;1999.90;999.90;;;;;;;;;;4956859;28;20722;-72
2023/08/02 05:48:06;;;;;;;1999.90;999.90;;;;;;;;;;4963735;28;20204;-73
2023/08/02 05:50:51;;;;;;;1999.90;999.90;;;;;;;;;;4956428;28;20712;-74
2023/08/02 05:53:36;;;;;;;1999.90;999.90;;;;;;;;;;4959918;28;20268;-75
2023/08/02 05:56:22;;;;;;;1999.90;999.90;;;;;;;;;;4956626;28;20213;-75
2023/08/02 05:59:07;;;;;;;1999.90;999.90;;;;;;;;;;4955433;28;20297;-77
2023/08/02 06:01:52;;;;;;;1999.90;999.90;;;;;;;;;;4960263;28;20219;-75
2023/08/02 06:04:37;;;;;;;1999.90;999.90;;;;;;;;;;4958648;28;20351;-75
2023/08/02 06:07:22;;;;;;;1999.90;999.90;;;;;;;;;;4957858;28;20203;-75
2023/08/02 06:10:07;;;;;;;1999.90;999.90;;;;;;;;;;4965769;28;20277;-75
2023/08/02 06:12:54;;;;;;;1999.90;999.90;;;;;;;;;;4959632;28;20421;-74
2023/08/02 06:15:39;;;;;;;1999.90;999.90;;;;;;;;;;4952442;28;20236;-75
2023/08/02 06:18:24;;;;;;;1999.90;999.90;;;;;;;;;;4963739;28;20732;-76
2023/08/02 06:21:09;;;;;;;1999.90;999.90;;;;;;;;;;4944752;28;20212;-75
2023/08/02 06:23:54;;;;;;;1999.90;999.90;;;;;;;;;;4963702;28;20223;-77
2023/08/02 06:26:39;;;;;;;1999.90;999.90;;;;;;;;;;4949593;28;20768;-75
2023/08/02 06:29:25;;;;;;;1999.90;999.90;;;;;;;;;;4961587;28;20329;-74
2023/08/02 06:32:10;;;;;;;1999.90;999.90;;;;;;;;;;4958196;28;21006;-78
2023/08/02 06:34:55;;;;;;;1999.90;999.90;;;;;;;;;;4952309;28;20602;-76
2023/08/02 06:37:40;;;;;;;1999.90;999.90;;;;;;;;;;4956663;28;20721;-75
2023/08/02 06:40:25;;;;;;;1999.90;999.90;;;;;;;;;;4953079;28;20212;-76
2023/08/02 06:43:10;;;;;;;1999.90;999.90;;;;;;;;;;4954653;28;20709;-74
2023/08/02 06:45:56;;;;;;;1999.90;999.90;;;;;;;;;;4954918;28;20830;-76
2023/08/02 06:48:41;;;;;;;1999.90;999.90;;;;;;;;;;4953583;28;20201;-76
2023/08/02 06:51:26;;;;;;;1999.90;999.90;;;;;;;;;;4952306;28;20336;-76
2023/08/02 06:54:12;;;;;;;1999.90;999.90;;;;;;;;;;4961646;28;20236;-76
2023/08/02 06:56:57;;;;;;;1999.90;999.90;;;;;;;;;;4957687;28;20276;-77
2023/08/02 06:59:42;;;;;;;1999.90;999.90;;;;;;;;;;4955733;28;20224;-75
2023/08/02 07:02:28;;;;;;;1999.90;999.90;;;;;;;;;;4954333;28;20317;-75
2023/08/02 07:05:13;;;;;;;1999.90;999.90;;;;;;;;;;4963308;28;20240;-76
2023/08/02 07:07:58;;;;;;;1999.90;999.90;;;;;;;;;;4974471;28;20208;-74
2023/08/02 07:10:43;;;;;;;1999.90;999.90;;;;;;;;;;4964074;28;20977;-76
2023/08/02 07:13:28;;;;;;;1999.90;999.90;;;;;;;;;;4954843;28;20236;-76
2023/08/02 07:16:13;;;;;;;1999.90;999.90;;;;;;;;;;4955905;28;20217;-75
2023/08/02 07:19:02;;;;;;;1999.90;999.90;;;;;;;;;;4963545;28;20231;-76
2023/08/02 07:21:47;;;;;;;1999.90;999.90;;;;;;;;;;4959039;28;20232;-75
2023/08/02 07:24:32;;;;;;;1999.90;999.90;;;;;;;;;;4954601;28;20240;-76
2023/08/02 07:27:17;;;;;;;1999.90;999.90;;;;;;;;;;4956930;28;20701;-75
2023/08/02 07:30:02;;;;;;;1999.90;999.90;;;;;;;;;;4956881;28;20464;-76
2023/08/02 07:32:47;;;;;;;1999.90;999.90;;;;;;;;;;4949953;28;20219;-75
2023/08/02 07:35:36;;;;;;;1999.90;999.90;;;;;;;;;;4953148;28;20243;-76
2023/08/02 07:38:21;;;;;;;1999.90;999.90;;;;;;;;;;4961834;28;20261;-75
2023/08/02 07:41:06;;;;;;;1999.90;999.90;;;;;;;;;;4961911;28;20211;-75
2023/08/02 07:43:51;;;;;;;1999.90;999.90;;;;;;;;;;4957289;28;20256;-76
2023/08/02 07:46:36;;;;;;;1999.90;999.90;;;;;;;;;;4955593;28;20332;-75
2023/08/02 07:49:21;;;;;;;1999.90;999.90;;;;;;;;;;4964121;28;20211;-76
2023/08/02 07:52:07;;;;;;;1999.90;999.90;;;;;;;;;;4950986;28;20220;-76
2023/08/02 07:54:52;;;;;;;1999.90;999.90;;;;;;;;;;4952678;28;20232;-75
2023/08/02 07:57:37;;;;;;;1999.90;999.90;;;;;;;;;;4952133;28;20208;-75
2023/08/02 08:00:23;;;;;;;1999.90;999.90;;;;;;;;;;4952746;28;20336;-75
2023/08/02 08:03:08;;;;;;;1999.90;999.90;;;;;;;;;;4953794;28;20275;-75
2023/08/02 08:05:53;;;;;;;1999.90;999.90;;;;;;;;;;4953984;28;20236;-75
2023/08/02 08:08:39;;;;;;;1999.90;999.90;;;;;;;;;;4954107;28;20208;-74
2023/08/02 08:11:27;;;;;;;1999.90;999.90;;;;;;;;;;4953686;28;20294;-76
2023/08/02 08:14:12;;;;;;;1999.90;999.90;;;;;;;;;;4953143;28;20356;-76
2023/08/02 08:16:58;;;;;;;1999.90;999.90;;;;;;;;;;4951746;28;20342;-75
2023/08/02 08:19:43;;;;;;;1999.90;999.90;;;;;;;;;;4952344;28;20243;-76
2023/08/02 08:22:29;;;;;;;1999.90;999.90;;;;;;;;;;4954556;28;20215;-76
2023/08/02 08:25:15;;;;;;;1999.90;999.90;;;;;;;;;;4957233;28;20371;-76
2023/08/02 08:28:00;;;;;;;1999.90;999.90;;;;;;;;;;4952253;28;20424;-77
2023/08/02 08:30:45;;;;;;;1999.90;999.90;;;;;;;;;;4950061;28;20231;-79
2023/08/02 08:33:30;;;;;;;1999.90;999.90;;;;;;;;;;4952996;28;20208;-78
2023/08/02 08:36:15;;;;;;;1999.90;999.90;;;;;;;;;;4953169;28;20224;-78
2023/08/02 08:39:00;;;;;;;1999.90;999.90;;;;;;;;;;4953151;28;20221;-78
2023/08/02 08:41:46;;;;;;;1999.90;999.90;;;;;;;;;;4947686;28;20219;-77
2023/08/02 08:44:31;;;;;;;1999.90;999.90;;;;;;;;;;4953340;28;20737;-78
2023/08/02 08:47:17;;;;;;;1999.90;999.90;;;;;;;;;;4953656;28;20272;-78
2023/08/02 08:50:04;;;;;;;1999.90;999.90;;;;;;;;;;4954936;28;20693;-78
2023/08/02 08:52:51;;;;;;;1999.90;999.90;;;;;;;;;;4959277;28;20297;-77
2023/08/02 08:55:36;;;;;;;1999.90;999.90;;;;;;;;;;4955914;28;20304;-78
2023/08/02 08:58:23;;;;;;;1999.90;999.90;;;;;;;;;;4961738;28;20220;-79
2023/08/02 09:01:08;;;;;;;1999.90;999.90;;;;;;;;;;4953027;28;20701;-78
2023/08/02 09:03:53;;;;;;;1999.90;999.90;;;;;;;;;;4955481;28;20212;-77
2023/08/02 09:06:38;;;;;;;1999.90;999.90;;;;;;;;;;4956128;28;20465;-79
2023/08/02 09:09:22;;;;;;;1999.90;999.90;;;;;;;;;;4956737;28;20216;-79
2023/08/02 09:12:08;;;;;;;1999.90;999.90;;;;;;;;;;4956519;28;20220;-78
2023/08/02 09:15:02;;;;;;;1999.90;999.90;;;;;;;;;;4956320;28;20315;-78
2023/08/02 09:17:48;;;;;;;1999.90;999.90;;;;;;;;;;4953883;28;20685;-78
2023/08/02 09:20:33;;;;;;;1999.90;999.90;;;;;;;;;;4958211;28;20742;-78
2023/08/02 09:23:18;;;;;;;1999.90;999.90;;;;;;;;;;4955937;28;20343;-78
2023/08/02 09:26:14;;;;;;;1999.90;999.90;;;;;;;;;;4955327;28;20455;-77
2023/08/02 09:29:00;;;;;;;1999.90;999.90;;;;;;;;;;4966196;28;20271;-77
2023/08/02 09:31:51;;;;;;;1999.90;999.90;;;;;;;;;;4955108;28;20282;-77
2023/08/02 09:34:41;;;;;;;1999.90;999.90;;;;;;;;;;4956223;28;20735;-76
2023/08/02 09:37:29;;;;;;;1999.90;999.90;;;;;;;;;;4965659;28;20339;-77
2023/08/02 09:40:14;;;;;;;1999.90;999.90;;;;;;;;;;4966361;28;20228;-77
2023/08/02 09:42:59;;;;;;;1999.90;999.90;;;;;;;;;;4965252;28;20234;-77
2023/08/02 09:45:44;;;;;;;1999.90;999.90;;;;;;;;;;4958323;28;20228;-77
2023/08/02 09:48:36;;;;;;;1999.90;999.90;;;;;;;;;;4964250;28;20224;-77
2023/08/02 09:51:21;;;;;;;1999.90;999.90;;;;;;;;;;4955380;28;20222;-78
2023/08/02 09:54:06;;;;;;;1999.90;999.90;;;;;;;;;;4957895;28;20727;-75
2023/08/02 09:56:52;;;;;;;1999.90;999.90;;;;;;;;;;4956255;28;20207;-77
2023/08/02 09:59:38;;;;;;;1999.90;999.90;;;;;;;;;;4958332;28;20287;-77
2023/08/02 10:02:25;;;;;;;1999.90;999.90;;;;;;;;;;4958322;28;20220;-76
2023/08/02 10:05:12;;;;;;;1999.90;999.90;;;;;;;;;;4952186;28;20741;-76
2023/08/02 10:07:57;;;;;;;1999.90;999.90;;;;;;;;;;4951537;28;20219;-76
2023/08/02 10:10:45;;;;;;;1999.90;999.90;;;;;;;;;;4963891;28;20207;-77
2023/08/02 10:13:31;;;;;;;1999.90;999.90;;;;;;;;;;4956450;28;20216;-78
2023/08/02 10:16:18;;;;;;;1999.90;999.90;;;;;;;;;;4952883;28;20204;-78
2023/08/02 10:19:04;;;;;;;1999.90;999.90;;;;;;;;;;4950831;28;20292;-78
2023/08/02 10:21:51;;;;;;;1999.90;999.90;;;;;;;;;;4953308;28;20590;-78
2023/08/02 10:24:36;;;;;;;1999.90;999.90;;;;;;;;;;4951970;28;20309;-76
2023/08/02 10:27:22;;;;;;;1999.90;999.90;;;;;;;;;;4952429;28;20854;-75
2023/08/02 10:30:09;;;;;;;1999.90;999.90;;;;;;;;;;4970029;28;20208;-76
2023/08/02 10:33:09;;;;;;;1999.90;999.90;;;;;;;;;;4953091;28;20284;-75
2023/08/02 10:35:54;;;;;;;1999.90;999.90;;;;;;;;;;4954859;28;20382;-77
2023/08/02 10:38:52;;;;;;;1999.90;999.90;;;;;;;;;;4963465;28;20205;-76
2023/08/02 10:41:56;;;;;;;1999.90;999.90;;;;;;;;;;4952168;28;20220;-77
2023/08/02 10:45:04;;;;;;;1999.90;999.90;;;;;;;;;;4957117;28;20239;-75
2023/08/02 10:47:49;;;;;;;1999.90;999.90;;;;;;;;;;4953617;28;20239;-77
2023/08/02 10:50:45;;;;;;;1999.90;999.90;;;;;;;;;;4954937;28;20830;-76
2023/08/02 10:53:30;;;;;;;1999.90;999.90;;;;;;;;;;4961459;28;20208;-76
2023/08/02 10:56:18;;;;;;;1999.90;999.90;;;;;;;;;;4953317;29;20296;-75
2023/08/02 10:59:03;;;;;;;1999.90;999.90;;;;;;;;;;4954492;28;20232;-77
2023/08/02 11:01:55;;;;;;;1999.90;999.90;;;;;;;;;;4950669;28;20211;-75
2023/08/02 11:04:44;;;;;;;1999.90;999.90;;;;;;;;;;4952431;28;20508;-76
2023/08/02 11:07:29;;;;;;;1999.90;999.90;;;;;;;;;;4961107;28;20219;-74
2023/08/02 11:10:14;;;;;;;1999.90;999.90;;;;;;;;;;4954556;28;20228;-76
2023/08/02 11:13:01;;;;;;;1999.90;999.90;;;;;;;;;;4952169;28;20208;-75
2023/08/02 11:15:46;;;;;;;1999.90;999.90;;;;;;;;;;4959933;28;20233;-73
2023/08/02 11:18:31;;;;;;;1999.90;999.90;;;;;;;;;;4954484;28;20711;-74
2023/08/02 11:21:17;;;;;;;1999.90;999.90;;;;;;;;;;4957932;28;20750;-74
2023/08/02 11:24:02;;;;;;;1999.90;999.90;;;;;;;;;;4952432;28;20522;-76
2023/08/02 11:26:52;;;;;;;1999.90;999.90;;;;;;;;;;4953294;28;20340;-73
2023/08/02 11:29:39;;;;;;;1999.90;999.90;;;;;;;;;;4952221;28;20217;-76
2023/08/02 11:32:24;;;;;;;1999.90;999.90;;;;;;;;;;4949344;28;20329;-76
2023/08/02 11:35:09;;;;;;;1999.90;999.90;;;;;;;;;;4951080;28;20279;-76
2023/08/02 11:37:54;;;;;;;1999.90;999.90;;;;;;;;;;4952307;28;20281;-76
2023/08/02 11:40:39;;;;;;;1999.90;999.90;;;;;;;;;;4954589;28;20229;-75
2023/08/02 11:43:33;;;;;;;1999.90;999.90;;;;;;;;;;4950386;28;20268;-76
2023/08/02 11:56:49;;;;;;;1999.90;999.90;;;;;;;;;;5108143;27;20595;-75
2023/08/02 11:59:34;;;;;;;1999.90;999.90;;;;;;;;;;5108484;28;20346;-75
2023/08/02 12:02:23;;;;;;;1999.90;999.90;;;;;;;;;;5108007;28;20420;-74
2023/08/02 12:05:18;;;;;;;1999.90;999.90;;;;;;;;;;5093575;28;20223;-76
2023/08/02 12:08:13;;;;;;;1999.90;999.90;;;;;;;;;;5083822;28;20319;-73
2023/08/02 12:10:58;;;;;;;1999.90;999.90;;;;;;;;;;5088282;28;20293;-77
2023/08/02 12:13:44;;;;;;;1999.90;999.90;;;;;;;;;;5087427;28;20231;-75
2023/08/02 12:16:38;;;;;;;1999.90;999.90;;;;;;;;;;5087662;28;20695;-75
2023/08/02 12:19:37;;;;;;;1999.90;999.90;;;;;;;;;;5086160;28;20208;-76
2023/08/02 12:22:21;;;;;;;1999.90;999.90;;;;;;;;;;5084808;28;20429;-75
2023/08/02 12:25:07;;;;;;;1999.90;999.90;;;;;;;;;;5086903;28;20364;-75
2023/08/02 12:28:05;;;;;;;1999.90;999.90;;;;;;;;;;5084506;28;20212;-76
2023/08/02 12:31:01;;;;;;;1999.90;999.90;;;;;;;;;;5083997;28;20218;-75
2023/08/02 12:33:48;;;;;;;1999.90;999.90;;;;;;;;;;5087244;28;20213;-75
2023/08/02 12:36:33;;;;;;;1999.90;999.90;;;;;;;;;;5086180;28;20742;-75
2023/08/02 12:39:18;;;;;;;1999.90;999.90;;;;;;;;;;5086755;28;20293;-73
2023/08/02 12:42:03;;;;;;;1999.90;999.90;;;;;;;;;;5087761;28;20204;-75
2023/08/02 12:44:47;;;;;;;1999.90;999.90;;;;;;;;;;5088059;28;20305;-76
2023/08/02 12:47:34;;;;;;;1999.90;999.90;;;;;;;;;;5086771;28;20219;-75
2023/08/02 12:50:19;;;;;;;1999.90;999.90;;;;;;;;;;5087055;28;20703;-76
2023/08/02 12:53:04;;;;;;;1999.90;999.90;;;;;;;;;;5084426;28;20232;-78
2023/08/02 12:55:49;;;;;;;1999.90;999.90;;;;;;;;;;5084351;28;20244;-76
2023/08/02 12:58:34;;;;;;;1999.90;999.90;;;;;;;;;;5074556;28;20347;-76
2023/08/02 13:01:19;;;;;;;1999.90;999.90;;;;;;;;;;5071953;28;20267;-77
2023/08/02 13:04:05;;;;;;;1999.90;999.90;;;;;;;;;;5070829;28;20239;-77
2023/08/02 13:06:50;;;;;;;1999.90;999.90;;;;;;;;;;5071149;28;20200;-74
2023/08/02 13:09:38;;;;;;;1999.90;999.90;;;;;;;;;;5067090;28;20214;-77
2023/08/02 13:12:23;;;;;;;1999.90;999.90;;;;;;;;;;5065734;28;20260;-75
2023/08/02 13:15:09;;;;;;;1999.90;999.90;;;;;;;;;;5068774;28;20257;-77
2023/08/02 13:17:54;;;;;;;1999.90;999.90;;;;;;;;;;5073917;28;20208;-79
2023/08/02 13:20:41;;;;;;;1999.90;999.90;;;;;;;;;;5071146;28;20218;-76
2023/08/02 13:23:27;;;;;;;1999.90;999.90;;;;;;;;;;5069278;28;20707;-77
2023/08/02 13:26:12;;;;;;;1999.90;999.90;;;;;;;;;;5058749;28;20259;-76
2023/08/02 13:28:58;;;;;;;1999.90;999.90;;;;;;;;;;5071961;28;20212;-76
2023/08/02 13:31:43;;;;;;;1999.90;999.90;;;;;;;;;;5069229;28;20286;-77
2023/08/02 13:34:28;;;;;;;1999.90;999.90;;;;;;;;;;5066557;28;20716;-77
2023/08/02 13:37:14;;;;;;;1999.90;999.90;;;;;;;;;;5069558;28;20232;-75
2023/08/02 13:39:59;;;;;;;1999.90;999.90;;;;;;;;;;5071453;28;20254;-76
2023/08/02 13:42:44;;;;;;;1999.90;999.90;;;;;;;;;;5073382;28;20229;-75
2023/08/02 13:45:29;;;;;;;1999.90;999.90;;;;;;;;;;5070931;28;20268;-74
2023/08/02 13:48:14;;;;;;;1999.90;999.90;;;;;;;;;;5073528;28;20220;-75
2023/08/02 13:50:59;;;;;;;1999.90;999.90;;;;;;;;;;5072753;28;20267;-76
2023/08/02 13:53:45;;;;;;;1999.90;999.90;;;;;;;;;;5073535;28;20212;-76
2023/08/02 13:56:30;;;;;;;1999.90;999.90;;;;;;;;;;5062069;28;20308;-77
2023/08/02 13:59:15;;;;;;;1999.90;999.90;;;;;;;;;;5062537;28;20217;-75
2023/08/02 14:01:59;;;;;;;1999.90;999.90;;;;;;;;;;5066966;28;20216;-76
2023/08/02 14:04:44;;;;;;;1999.90;999.90;;;;;;;;;;5072083;28;20238;-75
2023/08/02 14:07:29;;;;;;;1999.90;999.90;;;;;;;;;;5072436;28;20218;-75
2023/08/02 14:10:16;;;;;;;1999.90;999.90;;;;;;;;;;5071633;28;20216;-75
2023/08/02 14:13:01;;;;;;;1999.90;999.90;;;;;;;;;;5069190;28;20587;-75
2023/08/02 14:15:46;;;;;;;1999.90;999.90;;;;;;;;;;5072816;28;20221;-75
2023/08/02 14:18:31;;;;;;;1999.90;999.90;;;;;;;;;;5072525;28;20208;-75
2023/08/02 14:21:15;;;;;;;1999.90;999.90;;;;;;;;;;5067559;28;20595;-75
2023/08/02 14:24:00;;;;;;;1999.90;999.90;;;;;;;;;;5063200;28;20213;-73
2023/08/02 14:26:47;;;;;;;1999.90;999.90;;;;;;;;;;5065993;28;20226;-73
2023/08/02 14:29:32;;;;;;;1999.90;999.90;;;;;;;;;;5070027;28;20321;-75
2023/08/02 14:32:16;;;;;;;1999.90;999.90;;;;;;;;;;5060507;28;20214;-74
2023/08/02 14:35:01;;;;;;;1999.90;999.90;;;;;;;;;;5056156;28;20313;-74
2023/08/02 14:37:46;;;;;;;1999.90;999.90;;;;;;;;;;5062180;28;20322;-75
2023/08/02 14:40:31;;;;;;;1999.90;999.90;;;;;;;;;;5058874;28;20476;-75
2023/08/02 14:43:17;;;;;;;1999.90;999.90;;;;;;;;;;5072271;28;20290;-76
2023/08/02 14:46:02;;;;;;;1999.90;999.90;;;;;;;;;;5069757;28;20224;-74
2023/08/02 14:48:47;;;;;;;1999.90;999.90;;;;;;;;;;5066174;28;20696;-74
2023/08/02 14:51:32;;;;;;;1999.90;999.90;;;;;;;;;;5071964;28;20336;-74
2023/08/02 14:54:17;;;;;;;1999.90;999.90;;;;;;;;;;5070642;28;20438;-76
2023/08/02 14:57:05;;;;;;;1999.90;999.90;;;;;;;;;;5069089;28;20204;-74
2023/08/02 14:59:51;;;;;;;1999.90;999.90;;;;;;;;;;5067057;28;20260;-74
2023/08/02 15:02:37;;;;;;;1999.90;999.90;;;;;;;;;;5067989;28;20714;-75
2023/08/02 15:05:21;;;;;;;1999.90;999.90;;;;;;;;;;5067146;28;20232;-75
2023/08/02 15:08:06;;;;;;;1999.90;999.90;;;;;;;;;;5070517;28;20211;-75
2023/08/02 15:10:51;;;;;;;1999.90;999.90;;;;;;;;;;5068494;28;20318;-74
2023/08/02 15:13:36;;;;;;;1999.90;999.90;;;;;;;;;;5068685;28;20735;-75
2023/08/02 15:16:23;;;;;;;1999.90;999.90;;;;;;;;;;5069983;28;20419;-75
2023/08/02 15:19:12;;;;;;;1999.90;999.90;;;;;;;;;;5071428;28;20209;-74
2023/08/02 15:21:57;;;;;;;1999.90;999.90;;;;;;;;;;5064182;28;20209;-75
2023/08/02 15:24:42;;;;;;;1999.90;999.90;;;;;;;;;;5069420;28;20742;-74
2023/08/02 15:27:27;;;;;;;1999.90;999.90;;;;;;;;;;5068540;28;20206;-75
2023/08/02 15:30:14;;;;;;;1999.90;999.90;;;;;;;;;;5067414;28;20564;-74
2023/08/02 15:33:00;;;;;;;1999.90;999.90;;;;;;;;;;5070095;28;20259;-73
2023/08/02 15:35:44;;;;;;;1999.90;999.90;;;;;;;;;;5070947;28;20430;-74
2023/08/02 15:38:29;;;;;;;1999.90;999.90;;;;;;;;;;5065213;28;20208;-75
2023/08/02 15:41:14;;;;;;;1999.90;999.90;;;;;;;;;;5071195;28;20208;-76
2023/08/02 15:43:59;;;;;;;1999.90;999.90;;;;;;;;;;5062040;28;20208;-76
2023/08/02 15:46:44;;;;;;;1999.90;999.90;;;;;;;;;;5071101;28;20216;-76
2023/08/02 15:49:30;;;;;;;1999.90;999.90;;;;;;;;;;5066844;28;20700;-74
2023/08/02 15:52:15;;;;;;;1999.90;999.90;;;;;;;;;;5051208;28;20636;-74
2023/08/02 15:55:00;;;;;;;1999.90;999.90;;;;;;;;;;5069433;28;20244;-74
2023/08/02 15:57:45;;;;;;;1999.90;999.90;;;;;;;;;;5069289;28;20276;-74
2023/08/02 16:00:30;;;;;;;1999.90;999.90;;;;;;;;;;5068464;28;20566;-75
2023/08/02 16:03:15;;;;;;;1999.90;999.90;;;;;;;;;;5069413;28;20228;-74
2023/08/02 16:06:01;;;;;;;1999.90;999.90;;;;;;;;;;5071495;28;20714;-75
2023/08/02 16:08:46;;;;;;;1999.90;999.90;;;;;;;;;;5070779;28;20227;-74
2023/08/02 16:11:31;;;;;;;1999.90;999.90;;;;;;;;;;5065277;28;20716;-75
2023/08/02 16:14:16;;;;;;;1999.90;999.90;;;;;;;;;;5069350;28;20778;-75
2023/08/02 16:17:01;;;;;;;1999.90;999.90;;;;;;;;;;5067707;28;20228;-73
2023/08/02 16:19:46;;;;;;;1999.90;999.90;;;;;;;;;;5067257;28;20212;-73
2023/08/02 16:22:32;;;;;;;1999.90;999.90;;;;;;;;;;5070223;28;20212;-74
2023/08/02 16:25:17;;;;;;;1999.90;999.90;;;;;;;;;;5062460;28;20353;-73
2023/08/02 16:28:03;;;;;;;1999.90;999.90;;;;;;;;;;5068829;28;20223;-73
2023/08/02 16:30:48;;;;;;;1999.90;999.90;;;;;;;;;;5065874;28;20215;-74
2023/08/02 16:33:32;;;;;;;1999.90;999.90;;;;;;;;;;5070409;28;20208;-75
2023/08/02 16:36:17;;;;;;;1999.90;999.90;;;;;;;;;;5072198;28;20201;-74
2023/08/02 16:39:04;;;;;;;1999.90;999.90;;;;;;;;;;5070643;28;20314;-74
2023/08/02 16:41:50;;;;;;;1999.90;999.90;;;;;;;;;;5073525;28;20204;-75
2023/08/02 16:44:34;;;;;;;1999.90;999.90;;;;;;;;;;5074707;28;20219;-74
2023/08/02 16:47:19;;;;;;;1999.90;999.90;;;;;;;;;;5072421;28;20239;-75
2023/08/02 16:50:05;;;;;;;1999.90;999.90;;;;;;;;;;5070769;28;20685;-74
2023/08/02 16:52:50;;;;;;;1999.90;999.90;;;;;;;;;;5071786;28;20227;-74
2023/08/02 16:55:36;;;;;;;1999.90;999.90;;;;;;;;;;5071116;28;20228;-74
2023/08/02 16:58:22;;;;;;;1999.90;999.90;;;;;;;;;;5069379;28;20228;-76
2023/08/02 17:01:07;;;;;;;1999.90;999.90;;;;;;;;;;5071145;28;20208;-75
2023/08/02 17:03:52;;;;;;;1999.90;999.90;;;;;;;;;;5072948;28;20711;-76
2023/08/02 17:06:37;;;;;;;1999.90;999.90;;;;;;;;;;5073093;28;20248;-75
2023/08/02 17:09:22;;;;;;;1999.90;999.90;;;;;;;;;;5066920;28;20690;-75
2023/08/02 17:12:09;;;;;;;1999.90;999.90;;;;;;;;;;5070269;28;21006;-74
2023/08/02 17:14:54;;;;;;;1999.90;999.90;;;;;;;;;;5069285;28;20231;-73
2023/08/02 17:17:39;;;;;;;1999.90;999.90;;;;;;;;;;5072023;28;20243;-74
2023/08/02 17:20:24;;;;;;;1999.90;999.90;;;;;;;;;;5068746;28;20254;-74
2023/08/02 17:23:09;;;;;;;1999.90;999.90;;;;;;;;;;5067662;28;20199;-74
2023/08/02 17:25:54;;;;;;;1999.90;999.90;;;;;;;;;;5072234;28;20592;-74
2023/08/02 17:28:40;;;;;;;1999.90;999.90;;;;;;;;;;5072090;28;20229;-73
2023/08/02 17:31:25;;;;;;;1999.90;999.90;;;;;;;;;;5067949;28;20213;-74
2023/08/02 17:34:10;;;;;;;1999.90;999.90;;;;;;;;;;5073533;28;20223;-74
2023/08/02 17:36:55;;;;;;;1999.90;999.90;;;;;;;;;;5072706;28;20283;-74
2023/08/02 17:39:42;;;;;;;1999.90;999.90;;;;;;;;;;5066775;28;20208;-76